Terminal Aerodrome Forecast
Issued by NWS Cleveland, OH

Home | Current Version | Previous Version | Graphics & Text | Print | Product List | Glossary Off
Versions: 1 2 3 4 5 6 7 8 9 10 11 12 13 14 15

000
FTUS41 KCLE 011411 AAA
TAFYNG
TAF AMD
KYNG 011411Z 0114/0212 27010KT 4SM BR OVC007
     FM011600 28007KT P6SM BKN015
     FM011800 28010KT P6SM BKN025
     FM012000 28010KT P6SM BKN045
     FM020100 32003KT P6SM SCT250
     FM020800 01002KT 3SM BR BKN012=

USA.gov is the U.S. government's official web portal to all federal, state and local government web resources and services.